Time;durP1;ratioP1;P1;durP2;ratioP2;P2;SDS_P1;SDS_P2;PMS_P1;PMS_P2;Temp;Humidity;BMP_temperature;BMP_pressure;BME280_temperature;BME280_humidity;BME280_pressure;Samples;Min_cycle;Max_cycle;Signal;HPM_P1;HPM_P2
2022/08/11 00:01:49;;;;;;;4.63;2.72;;;18.50;99.90;;;;;;4984004;28;20176;-71
2022/08/11 00:04:16;;;;;;;7.80;3.08;;;18.50;99.90;;;;;;4979143;28;20038;-72
2022/08/11 00:06:46;;;;;;;4.30;2.40;;;18.40;99.90;;;;;;4981532;28;20035;-72
2022/08/11 00:09:17;;;;;;;5.65;2.95;;;18.50;99.90;;;;;;4985774;28;20218;-71
2022/08/11 00:11:47;;;;;;;4.43;2.50;;;18.40;99.90;;;;;;4983259;28;20077;-72
2022/08/11 00:14:17;;;;;;;4.53;2.83;;;18.40;99.90;;;;;;4984268;28;20126;-71
2022/08/11 00:16:55;;;;;;;6.07;3.05;;;18.40;99.90;;;;;;4965732;28;20046;-72
2022/08/11 00:19:23;;;;;;;4.57;2.65;;;18.40;99.90;;;;;;4977747;28;20050;-72
2022/08/11 00:21:50;;;;;;;5.38;2.50;;;18.40;99.90;;;;;;4986554;28;20043;-71
2022/08/11 00:24:16;;;;;;;4.55;2.72;;;18.30;99.90;;;;;;4985228;28;20047;-71
2022/08/11 00:26:47;;;;;;;5.57;3.05;;;18.40;99.90;;;;;;4973046;28;20407;-71
2022/08/11 00:29:13;;;;;;;3.85;2.50;;;18.30;99.90;;;;;;4977498;28;20077;-71
2022/08/11 00:31:45;;;;;;;5.95;2.42;;;18.30;99.90;;;;;;4987301;28;20089;-72
2022/08/11 00:34:11;;;;;;;4.90;2.75;;;18.20;99.90;;;;;;4968722;28;20463;-71
2022/08/11 00:36:46;;;;;;;;;;;18.20;99.90;;;;;;4990191;28;20093;-71
2022/08/11 00:39:13;;;;;;;6.47;2.92;;;18.20;99.90;;;;;;4967362;28;19917;-71
2022/08/11 00:42:05;;;;;;;3.80;2.53;;;18.10;99.90;;;;;;4989911;28;20042;-71
2022/08/11 00:44:42;;;;;;;5.35;3.10;;;18.10;99.90;;;;;;4994362;28;20054;-71
2022/08/11 00:47:10;;;;;;;5.30;2.97;;;18.10;99.90;;;;;;4984510;28;20065;-71
2022/08/11 00:49:51;;;;;;;5.60;3.00;;;18.10;99.90;;;;;;4973643;28;20398;-71
2022/08/11 00:52:39;;;;;;;5.75;2.97;;;18.10;99.90;;;;;;4976235;28;20046;-71
2022/08/11 00:55:32;;;;;;;7.03;3.22;;;18.10;99.90;;;;;;4974335;28;20260;-71
2022/08/11 00:58:16;;;;;;;4.97;3.00;;;18.00;99.90;;;;;;4993559;28;20042;-71
2022/08/11 01:00:59;;;;;;;5.47;3.40;;;18.00;99.90;;;;;;4968564;28;20038;-71
2022/08/11 01:04:03;;;;;;;5.90;3.00;;;18.00;99.90;;;;;;4984921;28;20082;-71
2022/08/11 01:07:09;;;;;;;6.35;3.35;;;18.00;99.90;;;;;;4978763;28;20047;-71
2022/08/11 01:10:12;;;;;;;4.78;3.17;;;17.90;99.90;;;;;;4968728;28;20528;-71
2022/08/11 01:13:02;;;;;;;5.70;2.88;;;17.90;99.90;;;;;;4970942;28;20520;-71
2022/08/11 01:15:56;;;;;;;5.15;3.05;;;17.90;99.90;;;;;;4971943;28;20050;-71
2022/08/11 01:19:00;;;;;;;4.45;2.97;;;17.80;99.90;;;;;;4990297;28;20085;-72
2022/08/11 01:21:28;;;;;;;5.57;3.83;;;17.80;99.90;;;;;;4986735;28;20319;-72
2022/08/11 01:24:28;;;;;;;6.53;4.00;;;17.80;99.90;;;;;;4971990;28;20046;-71
2022/08/11 01:27:18;;;;;;;6.32;3.80;;;17.80;99.90;;;;;;5000213;28;20475;-71
2022/08/11 01:30:18;;;;;;;7.95;3.92;;;17.80;99.90;;;;;;4987785;28;20349;-71
2022/08/11 01:33:09;;;;;;;4.85;3.47;;;17.70;99.90;;;;;;4954337;28;20615;-71
2022/08/11 01:35:45;;;;;;;5.60;3.60;;;17.70;99.90;;;;;;4981996;28;20364;-71
2022/08/11 01:38:22;;;;;;;;;;;17.70;99.90;;;;;;4979852;28;20065;-71
2022/08/11 01:41:09;;;;;;;6.20;3.50;;;17.60;99.90;;;;;;4980050;28;20096;-71
2022/08/11 01:46:28;;;;;;;5.90;3.65;;;17.60;99.90;;;;;;4991111;28;20042;-71
2022/08/11 01:49:31;;;;;;;5.13;3.47;;;17.60;99.90;;;;;;5035156;23;20486;-74
2022/08/11 01:52:19;;;;;;;7.95;3.85;;;17.60;99.90;;;;;;5023990;28;20041;-75
2022/08/11 01:55:04;;;;;;;7.05;3.67;;;17.60;99.90;;;;;;5004464;28;20037;-75
2022/08/11 01:58:06;;;;;;;7.65;3.97;;;17.50;99.90;;;;;;5019895;28;20462;-72
2022/08/11 02:00:47;;;;;;;6.82;3.90;;;17.50;99.90;;;;;;5004658;28;20511;-72
2022/08/11 02:03:36;;;;;;;7.03;3.88;;;17.50;99.90;;;;;;5004068;28;20050;-72
2022/08/11 02:09:44;;;;;;;9.15;3.58;;;17.50;99.90;;;;;;5014423;28;20042;-72
2022/08/11 02:12:15;;;;;;;6.38;3.70;;;17.40;99.90;;;;;;4999013;28;20037;-71
2022/08/11 02:15:15;;;;;;;5.28;3.45;;;17.50;99.90;;;;;;5006060;28;20049;-72
2022/08/11 02:18:08;;;;;;;6.53;4.20;;;17.40;99.90;;;;;;4996953;28;20040;-72
2022/08/11 02:24:03;;;;;;;6.47;3.88;;;17.30;99.90;;;;;;5011432;28;20558;-71
2022/08/11 02:26:47;;;;;;;6.53;3.38;;;17.30;99.90;;;;;;5017167;28;20123;-72
2022/08/11 02:29:31;;;;;;;7.68;4.43;;;17.30;99.90;;;;;;5004755;28;20053;-72
2022/08/11 02:35:01;;;;;;;9.55;4.32;;;17.20;99.90;;;;;;5007433;28;20372;-72
2022/08/11 02:37:47;;;;;;;12.60;4.78;;;17.20;99.90;;;;;;5021119;28;20037;-72
2022/08/11 02:40:40;;;;;;;8.32;4.28;;;17.20;99.90;;;;;;4964168;28;20064;-71
2022/08/11 02:43:25;;;;;;;6.68;4.22;;;17.10;99.90;;;;;;5003444;28;20572;-71
2022/08/11 02:46:16;;;;;;;7.72;4.60;;;17.10;99.90;;;;;;5018758;28;20053;-72
2022/08/11 02:52:25;;;;;;;7.00;4.28;;;17.10;99.90;;;;;;5013776;28;21342;-72
2022/08/11 02:55:20;;;;;;;6.20;3.63;;;17.10;99.90;;;;;;5018037;28;20041;-72
2022/08/11 02:57:59;;;;;;;6.38;4.20;;;17.00;99.90;;;;;;5008867;28;20055;-72
2022/08/11 03:00:26;;;;;;;12.13;5.07;;;17.10;99.90;;;;;;5019957;28;20098;-72
2022/08/11 03:03:09;;;;;;;8.48;3.97;;;17.00;99.90;;;;;;4999282;28;20124;-71
2022/08/11 03:05:59;;;;;;;7.05;4.07;;;17.00;99.90;;;;;;5022236;28;20398;-72
2022/08/11 03:08:53;;;;;;;6.80;3.88;;;17.00;99.90;;;;;;5019860;28;20060;-71
2022/08/11 03:18:00;;;;;;;6.07;3.90;;;17.00;99.90;;;;;;5003907;28;20057;-71
2022/08/11 03:20:49;;;;;;;6.55;4.60;;;16.90;99.90;;;;;;5005295;28;20084;-72
2022/08/11 03:23:26;;;;;;;6.30;3.90;;;16.90;99.90;;;;;;4996209;28;20153;-72
2022/08/11 03:26:02;;;;;;;7.40;4.13;;;16.80;99.90;;;;;;5003863;28;20084;-71
2022/08/11 03:28:37;;;;;;;6.78;4.18;;;16.80;99.90;;;;;;5016186;28;20117;-72
2022/08/11 03:31:23;;;;;;;9.20;4.72;;;16.80;99.90;;;;;;5022009;28;20038;-72
2022/08/11 03:34:04;;;;;;;9.90;4.65;;;16.80;99.90;;;;;;5006204;28;20049;-72
2022/08/11 03:36:40;;;;;;;5.80;3.78;;;16.80;99.90;;;;;;5024726;28;20056;-72
2022/08/11 03:39:43;;;;;;;8.10;3.97;;;16.80;99.90;;;;;;5025371;28;20099;-72
2022/08/11 03:42:35;;;;;;;6.85;4.32;;;16.70;99.90;;;;;;5018120;28;20053;-71
2022/08/11 03:45:19;;;;;;;7.18;4.43;;;16.70;99.90;;;;;;4999870;28;20123;-72
2022/08/11 03:48:08;;;;;;;9.15;4.72;;;16.70;99.90;;;;;;5016767;28;20037;-72
2022/08/11 03:50:46;;;;;;;7.18;4.70;;;16.70;99.90;;;;;;4990266;28;20045;-72
2022/08/11 03:53:34;;;;;;;7.25;4.30;;;16.70;99.90;;;;;;5002801;28;20037;-72
2022/08/11 03:56:39;;;;;;;7.32;4.70;;;16.70;99.90;;;;;;5020033;28;20033;-72
2022/08/11 03:59:36;;;;;;;7.80;4.47;;;16.70;99.90;;;;;;5013341;28;20432;-72
2022/08/11 04:02:28;;;;;;;9.38;5.20;;;16.70;99.90;;;;;;4998753;28;20050;-72
2022/08/11 04:05:32;;;;;;;9.13;5.20;;;16.70;99.90;;;;;;4999034;28;20095;-72
2022/08/11 04:08:16;;;;;;;6.90;4.00;;;16.70;99.90;;;;;;5022203;28;20053;-71
2022/08/11 04:11:26;;;;;;;7.53;4.75;;;16.60;99.90;;;;;;4998780;28;20041;-71
2022/08/11 04:15:59;;;;;;;7.47;4.85;;;16.60;99.90;;;;;;5006482;28;20076;-72
2022/08/11 04:17:17;;;;;;;12.70;4.82;;;16.60;99.90;;;;;;5017629;28;20442;-72
2022/08/11 04:19:54;;;;;;;7.77;4.83;;;16.60;99.90;;;;;;5018687;28;20088;-71
2022/08/11 04:22:20;;;;;;;7.30;4.50;;;16.50;99.90;;;;;;4996769;28;20349;-72
2022/08/11 04:25:15;;;;;;;7.20;4.63;;;16.50;99.90;;;;;;5019555;28;20115;-72
2022/08/11 04:28:02;;;;;;;9.23;4.32;;;16.50;99.90;;;;;;5023328;28;20044;-72
2022/08/11 04:30:45;;;;;;;7.23;4.80;;;16.50;99.90;;;;;;4997916;28;20045;-71
2022/08/11 04:33:33;;;;;;;7.95;5.15;;;16.50;99.90;;;;;;5019463;28;20053;-71
2022/08/11 04:39:41;;;;;;;7.72;4.85;;;16.50;99.90;;;;;;5003832;28;20058;-71
2022/08/11 04:45:53;;;;;;;8.52;4.82;;;16.40;99.90;;;;;;5000376;28;20056;-74
2022/08/11 05:07:16;;;;;;;11.00;4.97;;;16.50;99.90;;;;;;5018543;28;20037;-72
2022/08/11 05:10:05;;;;;;;7.07;4.50;;;16.50;99.90;;;;;;5018798;28;20045;-72
2022/08/11 05:12:50;;;;;;;8.20;5.10;;;16.60;99.90;;;;;;5019961;28;20041;-72
2022/08/11 05:35:08;;;;;;;8.85;5.55;;;16.90;99.90;;;;;;5022265;28;20045;-72
2022/08/11 05:57:22;;;;;;;9.73;5.47;;;17.30;99.90;;;;;;5004937;28;20041;-75
2022/08/11 05:59:49;;;;;;;8.15;5.15;;;17.30;99.90;;;;;;5001799;28;20056;-71
2022/08/11 06:02:16;;;;;;;10.10;5.63;;;17.40;99.90;;;;;;5001238;28;20433;-75
2022/08/11 06:04:42;;;;;;;7.50;4.85;;;17.30;99.90;;;;;;5001472;28;20034;-73
2022/08/11 06:07:16;;;;;;;9.30;4.60;;;17.50;99.90;;;;;;5000858;28;20097;-74
2022/08/11 06:09:49;;;;;;;9.23;4.82;;;17.60;99.90;;;;;;4987071;28;20223;-72
2022/08/11 06:12:24;;;;;;;8.80;4.88;;;17.60;99.90;;;;;;5002254;28;20045;-72
2022/08/11 06:14:55;;;;;;;9.48;5.03;;;17.60;99.90;;;;;;5022245;28;20190;-73
2022/08/11 06:17:27;;;;;;;8.38;4.45;;;17.60;99.90;;;;;;5003737;28;20046;-72
2022/08/11 06:20:01;;;;;;;7.80;4.78;;;17.70;99.90;;;;;;5005132;28;20622;-73
2022/08/11 06:22:27;;;;;;;8.38;4.80;;;17.70;99.90;;;;;;4938028;28;20100;-73
2022/08/11 06:24:58;;;;;;;7.85;4.50;;;17.80;99.90;;;;;;4980292;28;20492;-73
2022/08/11 06:27:27;;;;;;;7.30;4.65;;;17.80;99.90;;;;;;5009914;28;20052;-72
2022/08/11 06:29:54;;;;;;;6.57;3.95;;;17.80;99.90;;;;;;5002527;28;20090;-73
2022/08/11 06:32:34;;;;;;;7.50;4.53;;;17.90;99.90;;;;;;4965791;28;20175;-72
2022/08/11 06:35:32;;;;;;;7.85;4.20;;;17.90;99.90;;;;;;4984038;28;20431;-73
2022/08/11 06:38:09;;;;;;;7.53;4.70;;;18.00;99.90;;;;;;5003390;28;20046;-73
2022/08/11 06:40:37;;;;;;;7.45;4.40;;;18.00;99.90;;;;;;4989412;28;20083;-72
2022/08/11 06:43:16;;;;;;;7.07;4.57;;;18.10;99.90;;;;;;5018255;28;20069;-73
2022/08/11 06:46:12;;;;;;;7.05;4.28;;;18.10;99.90;;;;;;5006404;28;20456;-73
2022/08/11 06:48:38;;;;;;;9.43;4.13;;;18.20;99.90;;;;;;4989282;28;20045;-73
2022/08/11 06:51:12;;;;;;;;;;;18.20;99.90;;;;;;5007833;28;20033;-72
2022/08/11 06:53:39;;;;;;;8.02;4.60;;;18.30;99.90;;;;;;4981096;28;20375;-72
2022/08/11 07:02:07;;;;;;;7.28;4.80;;;18.50;99.90;;;;;;5003689;28;20136;-72
2022/08/11 07:04:50;;;;;;;6.25;4.10;;;18.50;99.90;;;;;;5018375;28;20046;-72
2022/08/11 07:16:06;;;;;;;7.40;3.88;;;18.80;99.90;;;;;;4988914;28;20033;-72
2022/08/11 07:30:05;;;;;;;8.10;3.60;;;19.30;99.90;;;;;;5017941;28;20038;-73
2022/08/11 07:32:32;;;;;;;5.90;3.38;;;19.30;99.90;;;;;;5017420;28;20093;-72
2022/08/11 07:35:06;;;;;;;4.97;2.45;;;19.40;99.90;;;;;;4988804;28;20037;-73
2022/08/11 07:37:34;;;;;;;4.72;2.60;;;19.50;99.90;;;;;;5019984;28;20050;-72
2022/08/11 07:40:01;;;;;;;5.55;2.97;;;19.50;99.90;;;;;;5023662;28;20069;-72
2022/08/11 07:42:34;;;;;;;5.07;3.00;;;19.60;99.90;;;;;;5004645;28;20060;-71
2022/08/11 07:53:20;;;;;;;4.28;2.58;;;20.00;99.90;;;;;;5008365;28;20479;-73
2022/08/11 07:55:49;;;;;;;4.72;2.45;;;20.10;99.90;;;;;;5009380;28;20633;-73
2022/08/11 08:17:55;;;;;;;2.90;2.20;;;20.70;99.90;;;;;;5004186;28;20038;-73
2022/08/11 08:20:25;;;;;;;3.35;1.58;;;20.90;99.90;;;;;;4984543;28;20073;-73
2022/08/11 08:22:55;;;;;;;3.85;1.70;;;21.00;99.90;;;;;;4998662;28;20463;-73
2022/08/11 08:25:30;;;;;;;2.60;1.70;;;21.00;99.90;;;;;;4987318;28;20037;-73
2022/08/11 08:27:57;;;;;;;3.60;1.35;;;21.10;99.90;;;;;;5003159;28;20072;-73
2022/08/11 08:33:19;;;;;;;4.22;1.58;;;21.30;99.90;;;;;;4986319;28;20180;-73
2022/08/11 08:35:46;;;;;;;2.03;1.40;;;21.40;99.90;;;;;;5001046;28;20132;-73
2022/08/11 08:38:13;;;;;;;2.72;1.40;;;21.50;99.90;;;;;;5002758;28;20038;-73
2022/08/11 08:40:42;;;;;;;2.55;1.30;;;21.60;99.90;;;;;;5003073;28;20041;-73
2022/08/11 08:43:14;;;;;;;1.88;1.23;;;21.70;99.90;;;;;;5006065;28;20117;-73
2022/08/11 08:45:41;;;;;;;3.03;1.52;;;21.80;99.90;;;;;;4986894;28;20693;-73
2022/08/11 08:48:15;;;;;;;2.97;1.27;;;21.90;99.90;;;;;;4991466;28;20112;-73
2022/08/11 08:53:40;;;;;;;2.25;0.90;;;22.10;99.90;;;;;;4998924;28;20050;-73
2022/08/11 08:56:08;;;;;;;1.70;1.10;;;22.20;99.90;;;;;;4988411;28;20535;-73
2022/08/11 08:58:36;;;;;;;4.53;1.40;;;22.30;99.90;;;;;;5010791;28;20029;-73
2022/08/11 09:01:02;;;;;;;2.88;1.20;;;22.30;99.90;;;;;;5012240;28;20402;-73
2022/08/11 09:03:28;;;;;;;2.00;1.17;;;22.50;99.90;;;;;;5003940;28;20042;-73
2022/08/11 09:05:55;;;;;;;2.38;1.20;;;22.60;99.90;;;;;;4985860;28;20484;-73
2022/08/11 09:08:22;;;;;;;2.30;1.30;;;22.70;99.90;;;;;;4970741;28;20042;-73
2022/08/11 09:11:48;;;;;;;2.83;1.27;;;22.90;99.90;;;;;;5001830;28;20116;-72
2022/08/11 09:13:35;;;;;;;2.85;1.65;;;22.90;99.90;;;;;;5008148;28;20041;-73
2022/08/11 09:16:05;;;;;;;2.28;1.10;;;23.00;99.90;;;;;;4991148;28;20096;-73
2022/08/11 09:18:31;;;;;;;2.00;0.90;;;23.10;99.90;;;;;;4992326;28;20056;-72
2022/08/11 09:20:58;;;;;;;1.45;0.95;;;23.20;99.90;;;;;;5006693;28;20045;-73
2022/08/11 09:28:56;;;;;;;4.10;1.35;;;23.50;99.90;;;;;;5030127;28;20038;-73
2022/08/11 09:31:22;;;;;;;2.97;1.42;;;23.60;99.90;;;;;;5013088;28;20080;-73
2022/08/11 09:33:49;;;;;;;;;;;23.60;99.90;;;;;;5008565;28;20074;-73
2022/08/11 09:41:49;;;;;;;1.83;1.50;;;23.90;99.90;;;;;;4986583;28;20050;-73
2022/08/11 09:47:00;;;;;;;1.65;1.00;;;24.20;99.90;;;;;;4983076;28;20042;-73
2022/08/11 09:49:26;;;;;;;4.03;1.13;;;24.30;99.90;;;;;;5004541;28;20141;-73
2022/08/11 09:51:53;;;;;;;2.30;1.17;;;24.40;99.90;;;;;;4990002;28;20044;-73
2022/08/11 09:54:21;;;;;;;2.72;1.10;;;24.40;99.90;;;;;;5006864;28;20053;-73
2022/08/11 09:59:32;;;;;;;4.40;1.20;;;24.60;99.90;;;;;;5005355;28;20034;-73
2022/08/11 10:02:00;;;;;;;2.15;0.93;;;24.80;99.90;;;;;;5001133;28;20100;-73
2022/08/11 10:04:34;;;;;;;2.55;1.10;;;24.90;99.90;;;;;;4993449;28;20038;-73
2022/08/11 10:07:03;;;;;;;2.33;1.00;;;25.00;99.90;;;;;;4996898;28;20046;-73
2022/08/11 10:09:37;;;;;;;2.22;1.05;;;25.10;99.90;;;;;;5002787;28;20060;-73
2022/08/11 10:12:08;;;;;;;1.95;0.80;;;25.20;99.90;;;;;;5010950;28;20120;-73
2022/08/11 10:17:24;;;;;;;2.13;1.00;;;25.40;99.90;;;;;;5023427;28;20037;-73
2022/08/11 10:19:50;;;;;;;2.97;0.95;;;25.50;99.90;;;;;;4991582;28;20049;-73
2022/08/11 10:28:08;;;;;;;1.52;0.85;;;25.70;99.90;;;;;;4926751;28;20509;-72
2022/08/11 10:36:06;;;;;;;2.08;1.00;;;25.90;99.90;;;;;;5003992;28;20427;-73
2022/08/11 10:38:33;;;;;;;1.92;0.85;;;26.00;99.90;;;;;;4968944;28;20049;-73
2022/08/11 10:43:45;;;;;;;1.65;1.00;;;26.20;99.90;;;;;;5002699;28;20408;-72
2022/08/11 10:48:57;;;;;;;2.28;1.10;;;26.40;99.90;;;;;;4986577;28;20061;-73
2022/08/11 10:59:46;;;;;;;3.33;1.00;;;26.80;99.90;;;;;;4996216;28;20059;-73
2022/08/11 11:02:13;;;;;;;1.52;1.08;;;26.80;99.90;;;;;;4969300;28;20088;-73
2022/08/11 11:04:51;;;;;;;2.30;1.15;;;26.90;99.90;;;;;;4985641;28;20248;-73
2022/08/11 11:07:23;;;;;;;1.70;0.95;;;26.90;99.90;;;;;;5004159;28;20137;-73
2022/08/11 11:09:56;;;;;;;1.48;0.93;;;27.00;99.90;;;;;;5001803;28;20042;-73
2022/08/11 11:18:19;;;;;;;1.40;0.93;;;27.20;99.90;;;;;;4996155;28;20037;-73
2022/08/11 11:20:57;;;;;;;4.68;1.20;;;27.30;99.30;;;;;;4990425;28;20167;-73
2022/08/11 11:23:32;;;;;;;1.88;0.88;;;27.40;99.60;;;;;;5011593;28;20140;-73
2022/08/11 11:26:24;;;;;;;1.30;1.00;;;27.50;99.10;;;;;;5002980;28;20196;-72
2022/08/11 11:29:28;;;;;;;1.73;0.88;;;27.60;97.90;;;;;;4994995;28;20507;-73
2022/08/11 11:32:15;;;;;;;2.30;1.05;;;27.60;97.90;;;;;;4985171;28;20030;-73
2022/08/11 11:34:43;;;;;;;1.00;0.73;;;27.70;96.00;;;;;;4982636;28;20069;-73
2022/08/11 11:37:14;;;;;;;2.28;1.20;;;27.80;94.40;;;;;;4984588;28;20523;-73
2022/08/11 11:39:41;;;;;;;2.50;0.80;;;27.90;93.60;;;;;;4978591;28;20073;-73
2022/08/11 11:42:09;;;;;;;2.13;0.90;;;28.00;92.60;;;;;;5004367;28;20144;-73
2022/08/11 11:44:37;;;;;;;6.50;1.13;;;28.10;92.00;;;;;;5017969;28;20502;-73
2022/08/11 11:47:04;;;;;;;1.48;0.95;;;28.10;90.90;;;;;;5019846;28;20066;-73
2022/08/11 11:49:38;;;;;;;2.95;1.15;;;28.20;90.00;;;;;;5001511;28;20113;-73
2022/08/11 11:52:06;;;;;;;1.05;0.70;;;28.30;87.10;;;;;;4987393;28;20514;-73
2022/08/11 11:54:35;;;;;;;1.23;0.90;;;28.30;86.30;;;;;;4995147;28;20045;-73
2022/08/11 12:02:37;;;;;;;2.05;0.90;;;28.60;81.60;;;;;;5008387;28;20048;-73
2022/08/11 12:05:04;;;;;;;1.20;0.60;;;28.70;82.00;;;;;;5016313;28;20125;-73
2022/08/11 12:10:17;;;;;;;1.40;0.88;;;28.80;78.60;;;;;;5000236;28;20377;-73
2022/08/11 12:15:29;;;;;;;2.45;1.00;;;29.00;75.30;;;;;;4987139;28;20046;-73
2022/08/11 12:17:56;;;;;;;1.70;1.02;;;29.10;75.60;;;;;;4989579;28;20121;-73
2022/08/11 12:20:22;;;;;;;1.55;0.68;;;29.30;74.10;;;;;;5008666;28;20049;-73
2022/08/11 12:28:21;;;;;;;1.17;0.80;;;29.50;69.30;;;;;;5006147;28;20038;-73
2022/08/11 12:30:49;;;;;;;3.50;0.50;;;29.60;69.10;;;;;;5008507;28;20476;-73
2022/08/11 12:33:16;;;;;;;1.67;0.90;;;29.60;68.20;;;;;;5009486;28;20045;-73
2022/08/11 12:35:43;;;;;;;1.67;0.70;;;29.70;67.90;;;;;;4991059;28;20061;-73
2022/08/11 12:38:09;;;;;;;1.58;0.70;;;29.80;67.90;;;;;;5002619;28;20116;-73
2022/08/11 12:46:17;;;;;;;2.05;0.70;;;30.00;66.30;;;;;;5008648;28;20065;-73
2022/08/11 12:51:57;;;;;;;1.83;1.00;;;30.20;65.20;;;;;;4994399;28;20046;-73
2022/08/11 12:54:50;;;;;;;3.75;0.95;;;30.20;64.90;;;;;;5005601;28;20054;-73
2022/08/11 13:05:41;;;;;;;1.75;0.88;;;30.50;62.90;;;;;;5007007;28;20307;-73
2022/08/11 13:08:07;;;;;;;0.98;0.63;;;30.50;62.10;;;;;;4989779;28;20058;-74
2022/08/11 13:13:19;;;;;;;1.30;0.60;;;30.60;60.10;;;;;;5005173;28;20503;-71
2022/08/11 13:15:48;;;;;;;1.77;0.75;;;30.60;59.60;;;;;;4988884;28;20137;-71
2022/08/11 13:18:21;;;;;;;1.10;0.70;;;30.70;59.90;;;;;;5009072;28;20484;-73
2022/08/11 13:20:52;;;;;;;1.52;0.80;;;30.80;58.90;;;;;;5009813;28;20033;-73
2022/08/11 13:23:18;;;;;;;1.83;0.80;;;30.80;58.40;;;;;;4987191;28;20071;-74
2022/08/11 13:25:44;;;;;;;2.35;0.77;;;30.90;57.90;;;;;;5002508;28;20042;-74
2022/08/11 13:28:11;;;;;;;1.73;0.70;;;30.90;57.40;;;;;;4988718;28;20116;-73
2022/08/11 13:33:22;;;;;;;1.50;0.70;;;31.00;57.30;;;;;;5005188;28;20057;-73
2022/08/11 13:35:50;;;;;;;2.22;0.80;;;31.00;57.20;;;;;;4987548;28;20285;-73
2022/08/11 13:38:18;;;;;;;1.52;0.68;;;31.10;56.30;;;;;;5013947;28;20503;-73
2022/08/11 13:40:45;;;;;;;1.75;0.95;;;31.10;56.80;;;;;;5003961;28;20060;-73
2022/08/11 13:43:13;;;;;;;1.15;0.60;;;31.20;56.40;;;;;;5006728;28;20060;-73
2022/08/11 13:45:42;;;;;;;2.03;0.85;;;31.10;55.80;;;;;;5001239;28;20069;-73
2022/08/11 13:53:30;;;;;;;1.38;0.60;;;31.30;56.70;;;;;;4996167;28;20037;-76
2022/08/11 13:55:58;;;;;;;1.00;0.68;;;31.30;56.30;;;;;;4999031;28;20048;-77
2022/08/11 13:58:26;;;;;;;2.75;0.90;;;31.40;55.50;;;;;;5018769;28;20115;-77
2022/08/11 14:00:53;;;;;;;1.05;0.65;;;31.40;55.10;;;;;;5022102;28;20124;-76
2022/08/11 14:03:26;;;;;;;1.95;0.88;;;31.50;54.70;;;;;;5014519;28;20044;-76
2022/08/11 14:05:55;;;;;;;2.65;1.08;;;31.50;54.40;;;;;;5021803;28;20086;-76
2022/08/11 14:08:29;;;;;;;1.85;0.95;;;31.50;54.60;;;;;;5002416;28;20392;-76
2022/08/11 14:13:45;;;;;;;1.52;0.90;;;31.50;53.90;;;;;;5005252;28;20042;-77
2022/08/11 14:16:18;;;;;;;1.40;0.73;;;31.50;54.10;;;;;;5013442;28;20293;-76
2022/08/11 14:18:47;;;;;;;1.35;0.80;;;31.50;53.60;;;;;;5013703;28;20049;-76
2022/08/11 14:24:03;;;;;;;1.70;0.75;;;31.60;53.80;;;;;;4999379;28;20041;-76
2022/08/11 14:26:35;;;;;;;1.55;1.10;;;31.60;53.50;;;;;;4998649;28;20065;-75
2022/08/11 14:29:11;;;;;;;2.15;1.02;;;31.60;53.60;;;;;;5012286;28;20045;-76
2022/08/11 14:31:45;;;;;;;1.38;0.85;;;31.70;53.50;;;;;;5018786;28;20053;-76
2022/08/11 14:34:13;;;;;;;1.35;0.70;;;31.70;53.70;;;;;;5000198;28;20363;-76
2022/08/11 14:36:45;;;;;;;1.50;0.77;;;31.70;54.20;;;;;;5007221;28;20384;-76
2022/08/11 14:39:15;;;;;;;1.33;0.75;;;31.80;54.10;;;;;;5023082;28;20522;-76
2022/08/11 14:47:21;;;;;;;2.35;0.77;;;31.90;53.00;;;;;;5022497;28;20049;-77
2022/08/11 14:49:50;;;;;;;2.53;0.80;;;31.90;53.10;;;;;;5014105;28;20041;-76
2022/08/11 14:52:19;;;;;;;1.73;0.65;;;32.00;52.80;;;;;;5022203;28;20045;-76
2022/08/11 14:57:36;;;;;;;1.10;0.70;;;32.00;52.20;;;;;;5018025;28;20549;-77
2022/08/11 15:00:05;;;;;;;1.15;0.50;;;32.00;52.50;;;;;;5012875;28;20491;-76
2022/08/11 15:05:22;;;;;;;1.10;0.80;;;32.10;52.20;;;;;;5019244;28;20555;-77
2022/08/11 15:07:48;;;;;;;2.38;0.88;;;32.10;52.40;;;;;;5017915;28;20042;-76
2022/08/11 15:10:17;;;;;;;3.55;0.90;;;32.10;53.70;;;;;;4999278;28;20479;-76
2022/08/11 15:12:44;;;;;;;1.92;0.85;;;32.10;55.10;;;;;;5012927;28;20351;-77
2022/08/11 15:17:58;;;;;;;1.17;0.70;;;32.00;56.70;;;;;;5019250;28;20038;-78
2022/08/11 15:26:03;;;;;;;1.15;0.70;;;31.90;56.50;;;;;;5012509;28;20067;-79
2022/08/11 15:48:12;;;;;;;2.15;1.10;;;31.70;55.30;;;;;;5008292;28;20053;-77
2022/08/11 15:50:44;;;;;;;1.40;0.75;;;31.70;54.90;;;;;;5017998;28;20427;-78
2022/08/11 15:53:27;;;;;;;1.60;0.70;;;31.60;55.00;;;;;;4998182;28;20120;-78
2022/08/11 15:55:55;;;;;;;1.52;0.85;;;31.60;55.30;;;;;;5024714;28;20072;-78
2022/08/11 16:04:14;;;;;;;2.70;0.80;;;31.50;56.00;;;;;;5023965;28;20041;-78
2022/08/11 16:06:46;;;;;;;3.17;0.60;;;31.50;55.00;;;;;;5012679;28;20129;-78
2022/08/11 16:09:16;;;;;;;1.98;1.02;;;31.40;54.90;;;;;;5015475;28;20046;-78
2022/08/11 16:11:43;;;;;;;1.40;0.80;;;31.40;54.90;;;;;;5010063;28;20573;-78
2022/08/11 16:16:56;;;;;;;1.63;0.70;;;31.30;54.00;;;;;;5000868;28;20037;-78
2022/08/11 16:19:25;;;;;;;1.63;0.77;;;31.20;54.10;;;;;;5005697;28;20045;-78
2022/08/11 16:21:54;;;;;;;1.60;0.90;;;31.10;54.40;;;;;;4999637;28;20038;-78
2022/08/11 16:24:21;;;;;;;4.63;0.90;;;31.00;54.60;;;;;;5016720;28;20041;-78
2022/08/11 16:26:49;;;;;;;2.63;1.00;;;30.80;54.80;;;;;;5014335;28;20072;-78
2022/08/11 16:29:16;;;;;;;3.15;0.70;;;30.80;55.00;;;;;;5012060;28;20198;-78
2022/08/11 16:32:15;;;;;;;1.30;0.80;;;30.70;55.10;;;;;;4997453;28;20045;-77
2022/08/11 16:40:00;;;;;;;1.00;0.68;;;30.30;55.40;;;;;;4990964;28;20045;-78
2022/08/11 16:48:03;;;;;;;1.35;0.65;;;29.90;55.80;;;;;;4993956;28;20467;-78
2022/08/11 16:50:30;;;;;;;1.92;0.90;;;29.80;56.10;;;;;;5000678;28;20513;-79
2022/08/11 16:52:55;;;;;;;1.30;0.80;;;29.60;56.10;;;;;;5011122;28;20041;-77
2022/08/11 16:55:22;;;;;;;1.58;0.70;;;29.60;56.40;;;;;;5002344;28;20045;-77
2022/08/11 17:00:33;;;;;;;5.88;1.02;;;29.40;57.20;;;;;;5010901;28;20380;-77
2022/08/11 17:14:56;;;;;;;1.23;0.70;;;28.70;59.40;;;;;;4961041;28;20254;-77
2022/08/11 17:17:37;;;;;;;2.80;0.90;;;28.60;60.40;;;;;;5015189;28;20042;-77
2022/08/11 17:20:09;;;;;;;3.08;0.90;;;28.50;61.00;;;;;;5007952;28;20103;-78
2022/08/11 17:25:27;;;;;;;1.08;0.80;;;28.20;62.10;;;;;;4992956;28;20120;-77
2022/08/11 17:27:54;;;;;;;1.58;0.85;;;28.20;62.80;;;;;;5003128;28;20431;-77
2022/08/11 17:30:21;;;;;;;2.40;0.88;;;28.10;63.60;;;;;;5027842;28;20522;-78
2022/08/11 17:35:38;;;;;;;1.10;0.60;;;27.90;64.90;;;;;;5001115;28;20045;-77
2022/08/11 17:38:22;;;;;;;1.42;0.93;;;27.80;65.70;;;;;;5006008;28;20128;-78
2022/08/11 17:49:14;;;;;;;1.27;0.68;;;27.40;66.50;;;;;;5005085;28;20273;-77
2022/08/11 18:00:02;;;;;;;1.60;0.90;;;27.00;69.10;;;;;;4998986;28;20045;-77
2022/08/11 18:03:33;;;;;;;2.35;1.02;;;26.90;69.90;;;;;;5017644;28;20463;-78
2022/08/11 18:05:33;;;;;;;1.20;0.80;;;26.80;70.20;;;;;;4946448;28;20167;-78
